sensor_id;sensor_type;location;lat;lon;timestamp;temperature;humidity
30186;DHT22;31152;49.190;8.122;2022-07-19T00:00:21;21.70;64.10
30186;DHT22;31152;49.190;8.122;2022-07-19T00:02:50;21.60;64.50
30186;DHT22;31152;49.190;8.122;2022-07-19T00:05:20;21.50;64.80
30186;DHT22;31152;49.190;8.122;2022-07-19T00:07:47;21.40;65.30
30186;DHT22;31152;49.190;8.122;2022-07-19T00:10:16;21.40;65.20
30186;DHT22;31152;49.190;8.122;2022-07-19T00:12:47;21.30;65.60
30186;DHT22;31152;49.190;8.122;2022-07-19T00:15:15;21.30;65.40
30186;DHT22;31152;49.190;8.122;2022-07-19T00:17:47;21.20;65.50
30186;DHT22;31152;49.190;8.122;2022-07-19T00:20:16;21.20;65.60
30186;DHT22;31152;49.190;8.122;2022-07-19T00:22:46;21.20;65.50
30186;DHT22;31152;49.190;8.122;2022-07-19T00:25:13;21.10;65.70
30186;DHT22;31152;49.190;8.122;2022-07-19T00:27:41;21.10;65.60
30186;DHT22;31152;49.190;8.122;2022-07-19T00:30:09;21.10;65.70
30186;DHT22;31152;49.190;8.122;2022-07-19T00:32:36;21.10;65.40
30186;DHT22;31152;49.190;8.122;2022-07-19T00:35:03;21.10;65.50
30186;DHT22;31152;49.190;8.122;2022-07-19T00:37:30;21.10;65.30
30186;DHT22;31152;49.190;8.122;2022-07-19T00:39:57;21.10;65.20
30186;DHT22;31152;49.190;8.122;2022-07-19T00:42:24;21.00;65.30
30186;DHT22;31152;49.190;8.122;2022-07-19T00:44:53;21.00;65.50
30186;DHT22;31152;49.190;8.122;2022-07-19T00:47:20;20.90;65.70
30186;DHT22;31152;49.190;8.122;2022-07-19T00:49:47;20.90;66.20
30186;DHT22;31152;49.190;8.122;2022-07-19T00:52:15;20.80;66.20
30186;DHT22;31152;49.190;8.122;2022-07-19T00:54:43;20.80;66.60
30186;DHT22;31152;49.190;8.122;2022-07-19T00:57:12;20.80;66.60
30186;DHT22;31152;49.190;8.122;2022-07-19T00:59:41;20.80;66.70
30186;DHT22;31152;49.190;8.122;2022-07-19T01:02:11;20.70;66.80
30186;DHT22;31152;49.190;8.122;2022-07-19T01:04:40;20.70;66.80
30186;DHT22;31152;49.190;8.122;2022-07-19T01:07:08;20.70;66.80
30186;DHT22;31152;49.190;8.122;2022-07-19T01:09:38;20.70;66.80
30186;DHT22;31152;49.190;8.122;2022-07-19T01:12:07;20.60;66.60
30186;DHT22;31152;49.190;8.122;2022-07-19T01:14:34;20.60;66.80
30186;DHT22;31152;49.190;8.122;2022-07-19T01:17:04;20.60;67.10
30186;DHT22;31152;49.190;8.122;2022-07-19T01:19:31;20.50;67.20
30186;DHT22;31152;49.190;8.122;2022-07-19T01:22:00;20.50;67.10
30186;DHT22;31152;49.190;8.122;2022-07-19T01:24:27;20.50;67.30
30186;DHT22;31152;49.190;8.122;2022-07-19T01:26:54;20.50;67.30
30186;DHT22;31152;49.190;8.122;2022-07-19T01:29:21;20.40;67.30
30186;DHT22;31152;49.190;8.122;2022-07-19T01:31:51;20.40;67.50
30186;DHT22;31152;49.190;8.122;2022-07-19T01:34:18;20.40;67.20
30186;DHT22;31152;49.190;8.122;2022-07-19T01:36:47;20.40;67.10
30186;DHT22;31152;49.190;8.122;2022-07-19T01:39:13;20.40;67.30
30186;DHT22;31152;49.190;8.122;2022-07-19T01:41:40;20.40;67.20
30186;DHT22;31152;49.190;8.122;2022-07-19T01:44:07;20.40;67.20
30186;DHT22;31152;49.190;8.122;2022-07-19T01:46:34;20.40;67.20
30186;DHT22;31152;49.190;8.122;2022-07-19T01:49:01;20.40;67.30
30186;DHT22;31152;49.190;8.122;2022-07-19T01:51:27;20.40;67.60
30186;DHT22;31152;49.190;8.122;2022-07-19T01:53:54;20.30;67.70
30186;DHT22;31152;49.190;8.122;2022-07-19T01:56:24;20.30;68.10
30186;DHT22;31152;49.190;8.122;2022-07-19T01:58:50;20.20;68.00
30186;DHT22;31152;49.190;8.122;2022-07-19T02:01:17;20.20;68.00
30186;DHT22;31152;49.190;8.122;2022-07-19T02:03:44;20.20;68.10
30186;DHT22;31152;49.190;8.122;2022-07-19T02:06:11;20.20;68.20
30186;DHT22;31152;49.190;8.122;2022-07-19T02:08:41;20.30;68.10
30186;DHT22;31152;49.190;8.122;2022-07-19T02:11:08;20.30;67.80
30186;DHT22;31152;49.190;8.122;2022-07-19T02:13:53;20.30;67.70
30186;DHT22;31152;49.190;8.122;2022-07-19T02:16:20;20.40;67.90
30186;DHT22;31152;49.190;8.122;2022-07-19T02:18:47;20.30;67.70
30186;DHT22;31152;49.190;8.122;2022-07-19T02:21:17;20.30;68.10
30186;DHT22;31152;49.190;8.122;2022-07-19T02:23:44;20.30;68.30
30186;DHT22;31152;49.190;8.122;2022-07-19T02:26:11;20.30;68.50
30186;DHT22;31152;49.190;8.122;2022-07-19T02:28:38;20.30;68.70
30186;DHT22;31152;49.190;8.122;2022-07-19T02:31:05;20.20;68.40
30186;DHT22;31152;49.190;8.122;2022-07-19T02:33:34;20.20;68.30
30186;DHT22;31152;49.190;8.122;2022-07-19T02:36:00;20.20;68.50
30186;DHT22;31152;49.190;8.122;2022-07-19T02:38:27;20.10;68.60
30186;DHT22;31152;49.190;8.122;2022-07-19T02:40:54;20.10;68.80
30186;DHT22;31152;49.190;8.122;2022-07-19T02:43:21;20.10;68.90
30186;DHT22;31152;49.190;8.122;2022-07-19T02:45:48;20.00;68.80
30186;DHT22;31152;49.190;8.122;2022-07-19T02:48:15;20.00;69.10
30186;DHT22;31152;49.190;8.122;2022-07-19T02:50:42;20.00;69.30
30186;DHT22;31152;49.190;8.122;2022-07-19T02:53:10;19.90;69.50
30186;DHT22;31152;49.190;8.122;2022-07-19T02:55:36;19.90;69.40
30186;DHT22;31152;49.190;8.122;2022-07-19T02:58:05;19.90;69.60
30186;DHT22;31152;49.190;8.122;2022-07-19T03:00:32;20.00;69.50
30186;DHT22;31152;49.190;8.122;2022-07-19T03:03:05;20.00;69.40
30186;DHT22;31152;49.190;8.122;2022-07-19T03:05:51;20.00;69.20
30186;DHT22;31152;49.190;8.122;2022-07-19T03:08:17;20.00;69.40
30186;DHT22;31152;49.190;8.122;2022-07-19T03:10:44;20.00;69.40
30186;DHT22;31152;49.190;8.122;2022-07-19T03:13:11;19.90;69.40
30186;DHT22;31152;49.190;8.122;2022-07-19T03:15:38;19.90;69.70
30186;DHT22;31152;49.190;8.122;2022-07-19T03:18:05;19.80;69.80
30186;DHT22;31152;49.190;8.122;2022-07-19T03:20:32;19.80;69.90
30186;DHT22;31152;49.190;8.122;2022-07-19T03:23:01;19.80;70.00
30186;DHT22;31152;49.190;8.122;2022-07-19T03:25:28;19.70;70.10
30186;DHT22;31152;49.190;8.122;2022-07-19T03:27:55;19.60;70.30
30186;DHT22;31152;49.190;8.122;2022-07-19T03:30:24;19.60;70.50
30186;DHT22;31152;49.190;8.122;2022-07-19T03:32:51;19.60;70.70
30186;DHT22;31152;49.190;8.122;2022-07-19T03:35:20;19.60;70.70
30186;DHT22;31152;49.190;8.122;2022-07-19T03:37:47;19.50;71.00
30186;DHT22;31152;49.190;8.122;2022-07-19T03:40:16;19.50;71.20
30186;DHT22;31152;49.190;8.122;2022-07-19T03:42:45;19.50;71.00
30186;DHT22;31152;49.190;8.122;2022-07-19T03:45:12;19.50;71.00
30186;DHT22;31152;49.190;8.122;2022-07-19T03:47:39;19.50;71.30
30186;DHT22;31152;49.190;8.122;2022-07-19T03:50:06;19.50;71.00
30186;DHT22;31152;49.190;8.122;2022-07-19T03:52:35;19.50;71.00
30186;DHT22;31152;49.190;8.122;2022-07-19T03:55:02;19.50;71.30
30186;DHT22;31152;49.190;8.122;2022-07-19T03:57:31;19.40;71.20
30186;DHT22;31152;49.190;8.122;2022-07-19T03:59:58;19.40;71.60
30186;DHT22;31152;49.190;8.122;2022-07-19T04:02:27;19.40;71.60
30186;DHT22;31152;49.190;8.122;2022-07-19T04:04:54;19.40;72.40
30186;DHT22;31152;49.190;8.122;2022-07-19T04:07:21;19.40;71.70
30186;DHT22;31152;49.190;8.122;2022-07-19T04:09:48;19.40;71.30
30186;DHT22;31152;49.190;8.122;2022-07-19T04:12:17;19.40;73.70
30186;DHT22;31152;49.190;8.122;2022-07-19T04:14:46;19.20;73.80
30186;DHT22;31152;49.190;8.122;2022-07-19T04:17:13;19.30;72.30
30186;DHT22;31152;49.190;8.122;2022-07-19T04:19:39;19.30;71.70
30186;DHT22;31152;49.190;8.122;2022-07-19T04:22:06;19.30;71.30
30186;DHT22;31152;49.190;8.122;2022-07-19T04:24:35;19.40;71.30
30186;DHT22;31152;49.190;8.122;2022-07-19T04:27:02;19.40;71.20
30186;DHT22;31152;49.190;8.122;2022-07-19T04:29:29;19.40;71.10
30186;DHT22;31152;49.190;8.122;2022-07-19T04:31:55;19.40;70.80
30186;DHT22;31152;49.190;8.122;2022-07-19T04:34:22;19.40;70.80
30186;DHT22;31152;49.190;8.122;2022-07-19T04:36:49;19.40;70.70
30186;DHT22;31152;49.190;8.122;2022-07-19T04:39:16;19.40;70.80
30186;DHT22;31152;49.190;8.122;2022-07-19T04:41:42;19.40;71.00
30186;DHT22;31152;49.190;8.122;2022-07-19T04:44:09;19.40;71.00
30186;DHT22;31152;49.190;8.122;2022-07-19T04:46:36;19.50;71.00
30186;DHT22;31152;49.190;8.122;2022-07-19T04:49:08;19.50;71.30
30186;DHT22;31152;49.190;8.122;2022-07-19T04:51:35;19.40;71.50
30186;DHT22;31152;49.190;8.122;2022-07-19T04:54:02;19.40;71.80
30186;DHT22;31152;49.190;8.122;2022-07-19T04:56:31;19.40;71.90
30186;DHT22;31152;49.190;8.122;2022-07-19T04:59:03;19.40;72.20
30186;DHT22;31152;49.190;8.122;2022-07-19T05:01:30;19.40;72.10
30186;DHT22;31152;49.190;8.122;2022-07-19T05:03:58;19.40;72.30
30186;DHT22;31152;49.190;8.122;2022-07-19T05:06:25;19.50;72.40
30186;DHT22;31152;49.190;8.122;2022-07-19T05:08:52;19.60;72.60
30186;DHT22;31152;49.190;8.122;2022-07-19T05:11:22;19.60;72.20
30186;DHT22;31152;49.190;8.122;2022-07-19T05:13:49;19.70;72.00
30186;DHT22;31152;49.190;8.122;2022-07-19T05:16:18;19.70;71.90
30186;DHT22;31152;49.190;8.122;2022-07-19T05:18:45;19.80;71.80
30186;DHT22;31152;49.190;8.122;2022-07-19T05:21:12;19.90;71.70
30186;DHT22;31152;49.190;8.122;2022-07-19T05:23:40;20.00;71.60
30186;DHT22;31152;49.190;8.122;2022-07-19T05:26:08;20.10;71.60
30186;DHT22;31152;49.190;8.122;2022-07-19T05:28:37;20.20;71.40
30186;DHT22;31152;49.190;8.122;2022-07-19T05:31:04;20.20;71.00
30186;DHT22;31152;49.190;8.122;2022-07-19T05:33:33;20.30;70.50
30186;DHT22;31152;49.190;8.122;2022-07-19T05:36:00;20.50;70.60
30186;DHT22;31152;49.190;8.122;2022-07-19T05:38:29;20.50;69.70
30186;DHT22;31152;49.190;8.122;2022-07-19T05:41:00;20.60;70.10
30186;DHT22;31152;49.190;8.122;2022-07-19T05:43:30;20.70;71.70
30186;DHT22;31152;49.190;8.122;2022-07-19T05:45:56;20.80;70.90
30186;DHT22;31152;49.190;8.122;2022-07-19T05:48:23;20.90;70.20
30186;DHT22;31152;49.190;8.122;2022-07-19T05:50:50;21.00;69.40
30186;DHT22;31152;49.190;8.122;2022-07-19T05:53:17;21.10;69.00
30186;DHT22;31152;49.190;8.122;2022-07-19T05:55:47;21.30;68.80
30186;DHT22;31152;49.190;8.122;2022-07-19T05:58:14;21.30;68.10
30186;DHT22;31152;49.190;8.122;2022-07-19T06:00:47;21.40;67.80
30186;DHT22;31152;49.190;8.122;2022-07-19T06:03:32;21.50;66.80
30186;DHT22;31152;49.190;8.122;2022-07-19T06:05:59;21.70;66.20
30186;DHT22;31152;49.190;8.122;2022-07-19T06:08:26;21.80;66.10
30186;DHT22;31152;49.190;8.122;2022-07-19T06:10:53;21.90;65.50
30186;DHT22;31152;49.190;8.122;2022-07-19T06:13:19;22.00;64.60
30186;DHT22;31152;49.190;8.122;2022-07-19T06:15:46;22.10;63.70
30186;DHT22;31152;49.190;8.122;2022-07-19T06:18:13;22.20;62.60
30186;DHT22;31152;49.190;8.122;2022-07-19T06:20:45;22.40;62.40
30186;DHT22;31152;49.190;8.122;2022-07-19T06:23:14;22.50;62.40
30186;DHT22;31152;49.190;8.122;2022-07-19T06:25:45;22.60;63.60
30186;DHT22;31152;49.190;8.122;2022-07-19T06:28:12;22.60;62.90
30186;DHT22;31152;49.190;8.122;2022-07-19T06:30:41;22.80;62.20
30186;DHT22;31152;49.190;8.122;2022-07-19T06:33:08;22.90;61.00
30186;DHT22;31152;49.190;8.122;2022-07-19T06:35:35;23.00;60.60
30186;DHT22;31152;49.190;8.122;2022-07-19T06:38:02;23.10;60.50
30186;DHT22;31152;49.190;8.122;2022-07-19T06:40:28;23.20;60.40
30186;DHT22;31152;49.190;8.122;2022-07-19T06:42:57;23.30;61.20
30186;DHT22;31152;49.190;8.122;2022-07-19T06:45:27;23.40;61.00
30186;DHT22;31152;49.190;8.122;2022-07-19T06:47:54;23.50;60.90
30186;DHT22;31152;49.190;8.122;2022-07-19T06:50:21;23.60;60.10
30186;DHT22;31152;49.190;8.122;2022-07-19T06:53:06;23.70;59.50
30186;DHT22;31152;49.190;8.122;2022-07-19T06:55:33;23.80;58.80
30186;DHT22;31152;49.190;8.122;2022-07-19T06:58:00;23.90;58.80
30186;DHT22;31152;49.190;8.122;2022-07-19T07:00:27;24.00;58.50
30186;DHT22;31152;49.190;8.122;2022-07-19T07:02:56;24.00;58.30
30186;DHT22;31152;49.190;8.122;2022-07-19T07:05:23;24.10;58.40
30186;DHT22;31152;49.190;8.122;2022-07-19T07:07:50;24.20;58.80
30186;DHT22;31152;49.190;8.122;2022-07-19T07:10:18;24.20;58.70
30186;DHT22;31152;49.190;8.122;2022-07-19T07:12:45;24.40;58.70
30186;DHT22;31152;49.190;8.122;2022-07-19T07:15:14;24.50;58.40
30186;DHT22;31152;49.190;8.122;2022-07-19T07:17:41;24.60;58.50
30186;DHT22;31152;49.190;8.122;2022-07-19T07:20:09;24.70;58.00
30186;DHT22;31152;49.190;8.122;2022-07-19T07:22:37;24.80;57.90
30186;DHT22;31152;49.190;8.122;2022-07-19T07:25:05;24.90;58.00
30186;DHT22;31152;49.190;8.122;2022-07-19T07:27:34;25.00;58.20
30186;DHT22;31152;49.190;8.122;2022-07-19T07:30:04;25.10;57.70
30186;DHT22;31152;49.190;8.122;2022-07-19T07:32:34;25.20;58.00
30186;DHT22;31152;49.190;8.122;2022-07-19T07:35:00;25.30;58.00
30186;DHT22;31152;49.190;8.122;2022-07-19T07:37:27;25.40;58.00
30186;DHT22;31152;49.190;8.122;2022-07-19T07:39:54;25.50;57.60
30186;DHT22;31152;49.190;8.122;2022-07-19T07:42:23;25.60;57.80
30186;DHT22;31152;49.190;8.122;2022-07-19T07:44:52;25.70;58.00
30186;DHT22;31152;49.190;8.122;2022-07-19T07:47:19;25.80;57.70
30186;DHT22;31152;49.190;8.122;2022-07-19T07:49:45;25.80;57.70
30186;DHT22;31152;49.190;8.122;2022-07-19T07:52:12;26.00;57.80
30186;DHT22;31152;49.190;8.122;2022-07-19T07:54:39;26.10;57.40
30186;DHT22;31152;49.190;8.122;2022-07-19T07:57:26;26.20;57.00
30186;DHT22;31152;49.190;8.122;2022-07-19T07:59:53;26.30;56.90
30186;DHT22;31152;49.190;8.122;2022-07-19T08:02:24;26.30;56.60
30186;DHT22;31152;49.190;8.122;2022-07-19T08:04:51;26.40;56.80
30186;DHT22;31152;49.190;8.122;2022-07-19T08:07:18;26.50;56.90
30186;DHT22;31152;49.190;8.122;2022-07-19T08:09:44;26.50;56.60
30186;DHT22;31152;49.190;8.122;2022-07-19T08:12:11;26.60;56.60
30186;DHT22;31152;49.190;8.122;2022-07-19T08:14:40;26.70;56.50
30186;DHT22;31152;49.190;8.122;2022-07-19T08:17:07;26.80;56.00
30186;DHT22;31152;49.190;8.122;2022-07-19T08:19:34;26.90;55.80
30186;DHT22;31152;49.190;8.122;2022-07-19T08:22:01;27.10;55.60
30186;DHT22;31152;49.190;8.122;2022-07-19T08:24:28;27.20;55.60
30186;DHT22;31152;49.190;8.122;2022-07-19T08:26:55;27.30;55.30
30186;DHT22;31152;49.190;8.122;2022-07-19T08:29:22;27.40;55.30
30186;DHT22;31152;49.190;8.122;2022-07-19T08:31:49;27.50;55.20
30186;DHT22;31152;49.190;8.122;2022-07-19T08:34:15;27.60;54.90
30186;DHT22;31152;49.190;8.122;2022-07-19T08:36:44;27.70;55.00
30186;DHT22;31152;49.190;8.122;2022-07-19T08:39:11;27.80;55.40
30186;DHT22;31152;49.190;8.122;2022-07-19T08:41:43;27.90;55.20
30186;DHT22;31152;49.190;8.122;2022-07-19T08:44:11;28.00;54.80
30186;DHT22;31152;49.190;8.122;2022-07-19T08:46:40;28.10;54.70
30186;DHT22;31152;49.190;8.122;2022-07-19T08:49:10;28.20;54.50
30186;DHT22;31152;49.190;8.122;2022-07-19T08:51:37;28.30;54.80
30186;DHT22;31152;49.190;8.122;2022-07-19T08:54:07;28.40;54.50
30186;DHT22;31152;49.190;8.122;2022-07-19T08:56:34;28.60;54.00
30186;DHT22;31152;49.190;8.122;2022-07-19T08:59:22;28.70;53.50
30186;DHT22;31152;49.190;8.122;2022-07-19T09:01:50;28.80;53.70
30186;DHT22;31152;49.190;8.122;2022-07-19T09:04:19;28.90;53.50
30186;DHT22;31152;49.190;8.122;2022-07-19T09:06:51;29.10;53.20
30186;DHT22;31152;49.190;8.122;2022-07-19T09:09:21;29.30;53.00
30186;DHT22;31152;49.190;8.122;2022-07-19T09:11:50;29.40;53.00
30186;DHT22;31152;49.190;8.122;2022-07-19T09:14:31;29.50;52.30
30186;DHT22;31152;49.190;8.122;2022-07-19T09:17:03;29.60;52.40
30186;DHT22;31152;49.190;8.122;2022-07-19T09:19:38;29.80;51.60
30186;DHT22;31152;49.190;8.122;2022-07-19T09:22:07;29.90;51.30
30186;DHT22;31152;49.190;8.122;2022-07-19T09:24:38;30.10;51.20
30186;DHT22;31152;49.190;8.122;2022-07-19T09:27:10;30.20;51.40
30186;DHT22;31152;49.190;8.122;2022-07-19T09:29:44;30.10;51.30
30186;DHT22;31152;49.190;8.122;2022-07-19T09:32:19;30.10;51.00
30186;DHT22;31152;49.190;8.122;2022-07-19T09:34:52;30.20;49.80
30186;DHT22;31152;49.190;8.122;2022-07-19T09:37:21;30.30;49.80
30186;DHT22;31152;49.190;8.122;2022-07-19T09:39:53;30.40;49.90
30186;DHT22;31152;49.190;8.122;2022-07-19T09:44:59;30.30;49.40
30186;DHT22;31152;49.190;8.122;2022-07-19T09:47:31;30.10;49.00
30186;DHT22;31152;49.190;8.122;2022-07-19T09:49:59;30.10;49.50
30186;DHT22;31152;49.190;8.122;2022-07-19T09:52:26;30.20;49.60
30186;DHT22;31152;49.190;8.122;2022-07-19T09:55:09;30.30;49.80
30186;DHT22;31152;49.190;8.122;2022-07-19T09:57:42;30.40;49.60
30186;DHT22;31152;49.190;8.122;2022-07-19T10:00:10;30.60;48.90
30186;DHT22;31152;49.190;8.122;2022-07-19T10:02:40;30.90;48.50
30186;DHT22;31152;49.190;8.122;2022-07-19T10:05:09;31.20;48.50
30186;DHT22;31152;49.190;8.122;2022-07-19T10:07:37;31.40;48.00
30186;DHT22;31152;49.190;8.122;2022-07-19T10:10:06;31.60;47.30
30186;DHT22;31152;49.190;8.122;2022-07-19T10:12:37;31.80;47.70
30186;DHT22;31152;49.190;8.122;2022-07-19T10:15:12;32.10;47.10
30186;DHT22;31152;49.190;8.122;2022-07-19T10:17:47;32.20;46.60
30186;DHT22;31152;49.190;8.122;2022-07-19T10:20:21;32.30;46.10
30186;DHT22;31152;49.190;8.122;2022-07-19T10:22:50;32.50;46.00
30186;DHT22;31152;49.190;8.122;2022-07-19T10:25:20;32.50;46.20
30186;DHT22;31152;49.190;8.122;2022-07-19T10:27:50;32.60;45.40
30186;DHT22;31152;49.190;8.122;2022-07-19T10:30:19;32.70;45.60
30186;DHT22;31152;49.190;8.122;2022-07-19T10:32:53;32.80;44.10
30186;DHT22;31152;49.190;8.122;2022-07-19T10:40:46;33.20;41.20
30186;DHT22;31152;49.190;8.122;2022-07-19T10:43:17;33.20;41.30
30186;DHT22;31152;49.190;8.122;2022-07-19T10:48:47;33.40;40.60
30186;DHT22;31152;49.190;8.122;2022-07-19T10:51:31;33.40;41.10
30186;DHT22;31152;49.190;8.122;2022-07-19T10:54:06;33.50;40.60
30186;DHT22;31152;49.190;8.122;2022-07-19T10:56:38;33.60;40.70
30186;DHT22;31152;49.190;8.122;2022-07-19T10:59:33;33.70;39.20
30186;DHT22;31152;49.190;8.122;2022-07-19T11:02:00;33.90;39.00
30186;DHT22;31152;49.190;8.122;2022-07-19T11:04:49;34.00;38.70
30186;DHT22;31152;49.190;8.122;2022-07-19T11:07:21;34.20;38.70
30186;DHT22;31152;49.190;8.122;2022-07-19T11:09:53;34.30;38.40
30186;DHT22;31152;49.190;8.122;2022-07-19T11:12:28;34.40;37.70
30186;DHT22;31152;49.190;8.122;2022-07-19T11:14:56;34.50;37.10
30186;DHT22;31152;49.190;8.122;2022-07-19T11:17:49;34.60;36.10
30186;DHT22;31152;49.190;8.122;2022-07-19T11:20:17;34.70;36.10
30186;DHT22;31152;49.190;8.122;2022-07-19T11:22:47;34.70;36.70
30186;DHT22;31152;49.190;8.122;2022-07-19T11:25:32;34.80;36.20
30186;DHT22;31152;49.190;8.122;2022-07-19T11:28:00;34.80;35.70
30186;DHT22;31152;49.190;8.122;2022-07-19T11:30:30;34.90;36.50
30186;DHT22;31152;49.190;8.122;2022-07-19T11:33:02;35.00;36.30
30186;DHT22;31152;49.190;8.122;2022-07-19T11:35:33;35.00;36.30
30186;DHT22;31152;49.190;8.122;2022-07-19T11:38:03;35.20;35.70
30186;DHT22;31152;49.190;8.122;2022-07-19T11:40:35;35.20;36.70
30186;DHT22;31152;49.190;8.122;2022-07-19T11:43:08;35.20;36.10
30186;DHT22;31152;49.190;8.122;2022-07-19T11:45:49;35.40;36.30
30186;DHT22;31152;49.190;8.122;2022-07-19T11:48:27;35.40;35.50
30186;DHT22;31152;49.190;8.122;2022-07-19T11:51:03;35.60;35.30
30186;DHT22;31152;49.190;8.122;2022-07-19T11:53:35;35.60;34.70
30186;DHT22;31152;49.190;8.122;2022-07-19T11:56:03;35.60;34.90
30186;DHT22;31152;49.190;8.122;2022-07-19T11:58:31;35.70;35.20
30186;DHT22;31152;49.190;8.122;2022-07-19T12:01:05;35.70;34.70
30186;DHT22;31152;49.190;8.122;2022-07-19T12:03:32;35.80;34.70
30186;DHT22;31152;49.190;8.122;2022-07-19T12:06:04;35.80;34.60
30186;DHT22;31152;49.190;8.122;2022-07-19T12:08:43;35.90;34.30
30186;DHT22;31152;49.190;8.122;2022-07-19T12:13:42;35.90;34.70
30186;DHT22;31152;49.190;8.122;2022-07-19T12:16:15;35.90;34.00
30186;DHT22;31152;49.190;8.122;2022-07-19T12:18:51;35.90;34.30
30186;DHT22;31152;49.190;8.122;2022-07-19T12:26:39;36.10;33.90
30186;DHT22;31152;49.190;8.122;2022-07-19T12:29:44;36.10;34.00
30186;DHT22;31152;49.190;8.122;2022-07-19T12:32:31;36.00;34.40
30186;DHT22;31152;49.190;8.122;2022-07-19T12:35:05;36.10;34.50
30186;DHT22;31152;49.190;8.122;2022-07-19T12:37:41;36.10;34.00
30186;DHT22;31152;49.190;8.122;2022-07-19T12:40:20;36.10;34.20
30186;DHT22;31152;49.190;8.122;2022-07-19T12:42:55;36.00;34.50
30186;DHT22;31152;49.190;8.122;2022-07-19T12:45:31;36.00;34.10
30186;DHT22;31152;49.190;8.122;2022-07-19T12:48:00;36.10;34.40
30186;DHT22;31152;49.190;8.122;2022-07-19T12:50:32;36.20;34.20
30186;DHT22;31152;49.190;8.122;2022-07-19T12:53:04;36.30;33.70
30186;DHT22;31152;49.190;8.122;2022-07-19T12:55:33;36.30;33.10
30186;DHT22;31152;49.190;8.122;2022-07-19T12:58:01;36.30;32.30
30186;DHT22;31152;49.190;8.122;2022-07-19T13:00:29;36.40;32.50
30186;DHT22;31152;49.190;8.122;2022-07-19T13:02:57;36.40;32.50
30186;DHT22;31152;49.190;8.122;2022-07-19T13:05:27;36.30;32.40
30186;DHT22;31152;49.190;8.122;2022-07-19T13:07:56;36.30;32.60
30186;DHT22;31152;49.190;8.122;2022-07-19T13:10:25;36.30;33.30
30186;DHT22;31152;49.190;8.122;2022-07-19T13:12:52;36.40;32.40
30186;DHT22;31152;49.190;8.122;2022-07-19T13:15:19;36.40;32.40
30186;DHT22;31152;49.190;8.122;2022-07-19T13:17:46;36.30;32.20
30186;DHT22;31152;49.190;8.122;2022-07-19T13:20:14;36.30;33.50
30186;DHT22;31152;49.190;8.122;2022-07-19T13:22:41;36.40;34.00
30186;DHT22;31152;49.190;8.122;2022-07-19T13:25:09;36.60;33.50
30186;DHT22;31152;49.190;8.122;2022-07-19T13:27:57;36.70;33.20
30186;DHT22;31152;49.190;8.122;2022-07-19T13:30:26;36.70;32.90
30186;DHT22;31152;49.190;8.122;2022-07-19T13:32:53;36.70;33.30
30186;DHT22;31152;49.190;8.122;2022-07-19T13:35:20;36.80;33.10
30186;DHT22;31152;49.190;8.122;2022-07-19T13:37:49;36.70;32.40
30186;DHT22;31152;49.190;8.122;2022-07-19T13:40:18;36.70;31.40
30186;DHT22;31152;49.190;8.122;2022-07-19T13:42:44;36.80;31.20
30186;DHT22;31152;49.190;8.122;2022-07-19T13:45:11;36.70;31.40
30186;DHT22;31152;49.190;8.122;2022-07-19T13:47:40;36.80;30.70
30186;DHT22;31152;49.190;8.122;2022-07-19T13:50:08;36.80;30.60
30186;DHT22;31152;49.190;8.122;2022-07-19T13:52:35;36.80;30.60
30186;DHT22;31152;49.190;8.122;2022-07-19T13:55:07;36.90;30.90
30186;DHT22;31152;49.190;8.122;2022-07-19T13:57:35;36.70;30.30
30186;DHT22;31152;49.190;8.122;2022-07-19T14:00:03;36.70;30.90
30186;DHT22;31152;49.190;8.122;2022-07-19T14:02:32;36.80;30.70
30186;DHT22;31152;49.190;8.122;2022-07-19T14:04:59;36.80;30.50
30186;DHT22;31152;49.190;8.122;2022-07-19T14:07:26;36.90;29.80
30186;DHT22;31152;49.190;8.122;2022-07-19T14:09:53;37.00;30.30
30186;DHT22;31152;49.190;8.122;2022-07-19T14:12:20;36.90;30.60
30186;DHT22;31152;49.190;8.122;2022-07-19T14:14:48;36.90;29.70
30186;DHT22;31152;49.190;8.122;2022-07-19T14:17:15;36.90;30.60
30186;DHT22;31152;49.190;8.122;2022-07-19T14:19:43;36.80;30.60
30186;DHT22;31152;49.190;8.122;2022-07-19T14:22:10;36.80;30.90
30186;DHT22;31152;49.190;8.122;2022-07-19T14:24:37;36.80;30.80
30186;DHT22;31152;49.190;8.122;2022-07-19T14:27:04;36.70;29.90
30186;DHT22;31152;49.190;8.122;2022-07-19T14:29:31;36.80;29.80
30186;DHT22;31152;49.190;8.122;2022-07-19T14:31:58;36.80;29.70
30186;DHT22;31152;49.190;8.122;2022-07-19T14:34:30;36.80;29.70
30186;DHT22;31152;49.190;8.122;2022-07-19T14:37:07;36.70;29.70
30186;DHT22;31152;49.190;8.122;2022-07-19T14:39:37;36.80;29.90
30186;DHT22;31152;49.190;8.122;2022-07-19T14:42:06;36.80;30.20
30186;DHT22;31152;49.190;8.122;2022-07-19T14:44:33;36.90;30.40
30186;DHT22;31152;49.190;8.122;2022-07-19T14:47:00;36.90;30.40
30186;DHT22;31152;49.190;8.122;2022-07-19T14:49:28;36.90;30.00
30186;DHT22;31152;49.190;8.122;2022-07-19T14:51:55;36.90;30.00
30186;DHT22;31152;49.190;8.122;2022-07-19T14:54:21;36.90;29.80
30186;DHT22;31152;49.190;8.122;2022-07-19T14:56:51;36.90;30.30
30186;DHT22;31152;49.190;8.122;2022-07-19T14:59:18;36.90;29.70
30186;DHT22;31152;49.190;8.122;2022-07-19T15:01:46;37.00;29.80
30186;DHT22;31152;49.190;8.122;2022-07-19T15:04:13;37.00;29.40
30186;DHT22;31152;49.190;8.122;2022-07-19T15:06:40;37.00;29.30
30186;DHT22;31152;49.190;8.122;2022-07-19T15:09:09;37.00;29.20
30186;DHT22;31152;49.190;8.122;2022-07-19T15:11:38;37.10;29.50
30186;DHT22;31152;49.190;8.122;2022-07-19T15:14:05;37.10;29.20
30186;DHT22;31152;49.190;8.122;2022-07-19T15:16:32;37.00;28.80
30186;DHT22;31152;49.190;8.122;2022-07-19T15:18:59;37.00;29.00
30186;DHT22;31152;49.190;8.122;2022-07-19T15:21:28;36.90;29.10
30186;DHT22;31152;49.190;8.122;2022-07-19T15:23:56;36.90;29.30
30186;DHT22;31152;49.190;8.122;2022-07-19T15:26:27;36.90;29.40
30186;DHT22;31152;49.190;8.122;2022-07-19T15:28:55;36.90;29.40
30186;DHT22;31152;49.190;8.122;2022-07-19T15:31:23;36.90;29.40
30186;DHT22;31152;49.190;8.122;2022-07-19T15:33:52;37.00;29.60
30186;DHT22;31152;49.190;8.122;2022-07-19T15:36:19;37.00;29.50
30186;DHT22;31152;49.190;8.122;2022-07-19T15:38:46;37.00;29.00
30186;DHT22;31152;49.190;8.122;2022-07-19T15:41:14;36.90;29.40
30186;DHT22;31152;49.190;8.122;2022-07-19T15:43:46;36.80;29.70
30186;DHT22;31152;49.190;8.122;2022-07-19T15:46:13;36.80;28.70
30186;DHT22;31152;49.190;8.122;2022-07-19T15:48:43;36.70;29.00
30186;DHT22;31152;49.190;8.122;2022-07-19T15:51:13;36.80;29.60
30186;DHT22;31152;49.190;8.122;2022-07-19T15:53:40;36.80;29.00
30186;DHT22;31152;49.190;8.122;2022-07-19T15:56:07;36.90;29.30
30186;DHT22;31152;49.190;8.122;2022-07-19T15:58:34;37.20;28.90
30186;DHT22;31152;49.190;8.122;2022-07-19T16:01:01;37.60;28.80